createdAt,value
2023-01-20T00:01:48.470Z,98978.75
2023-01-20T00:04:19.267Z,98981.19
2023-01-20T00:06:46.895Z,98975.91
2023-01-20T00:09:17.147Z,98976.97
2023-01-20T00:11:47.447Z,98973.06
2023-01-20T00:14:14.916Z,98967.81
2023-01-20T00:16:42.375Z,98962.22
2023-01-20T00:19:20.248Z,98956.47
2023-01-20T00:21:47.583Z,98949.88
2023-01-20T00:24:14.882Z,98962.06
2023-01-20T00:26:42.311Z,98962.34
2023-01-20T00:29:10.067Z,98967.47
2023-01-20T00:31:38.344Z,98969.44
2023-01-20T00:34:05.644Z,98977.72
2023-01-20T00:36:34.311Z,98981.97
2023-01-20T00:39:05.936Z,98988.75
2023-01-20T00:41:33.388Z,98985.31
2023-01-20T00:44:00.859Z,98989.22
2023-01-20T00:46:29.040Z,98998.56
2023-01-20T00:48:56.175Z,99004.75
2023-01-20T00:51:24.051Z,99004.75
2023-01-20T00:53:51.209Z,99015.91
2023-01-20T00:56:18.728Z,99014.56
2023-01-20T00:58:45.856Z,99020.72
2023-01-20T01:01:13.904Z,99028.25
2023-01-20T01:03:42.258Z,99037.00
2023-01-20T01:06:17.644Z,99037.59
2023-01-20T01:08:47.557Z,99046.22
2023-01-20T01:11:15.171Z,99051.47
2023-01-20T01:13:42.314Z,99054.78
2023-01-20T01:16:14.827Z,99057.47
2023-01-20T01:18:45.274Z,99051.56
2023-01-20T01:21:15.360Z,99052.03
2023-01-20T01:23:43.512Z,99047.97
2023-01-20T01:26:13.965Z,99046.00
2023-01-20T01:28:41.265Z,99045.56
2023-01-20T01:31:09.281Z,99057.41
2023-01-20T01:33:37.097Z,99053.34
2023-01-20T01:36:08.789Z,99052.28
2023-01-20T01:38:36.146Z,99047.75
2023-01-20T01:41:04.204Z,99046.56
2023-01-20T01:43:34.361Z,99040.22
2023-01-20T01:46:02.167Z,99031.66
2023-01-20T01:48:37.071Z,99017.38
2023-01-20T01:51:15.298Z,99015.91
2023-01-20T01:53:48.034Z,99008.06
2023-01-20T01:56:16.415Z,99015.91
2023-01-20T01:58:48.337Z,99002.97
2023-01-20T02:01:16.452Z,99003.72
2023-01-20T02:04:25.153Z,99001.91
2023-01-20T02:07:00.188Z,99002.66
2023-01-20T02:09:30.685Z,98997.66
2023-01-20T02:12:02.143Z,99000.53
2023-01-20T02:14:37.252Z,99007.03
2023-01-20T02:17:30.602Z,99017.56
2023-01-20T02:19:57.633Z,99015.00
2023-01-20T02:22:34.191Z,99025.09
2023-01-20T02:25:24.823Z,99023.44
2023-01-20T02:28:23.155Z,99018.00
2023-01-20T02:30:56.302Z,99015.75
2023-01-20T02:33:42.905Z,99009.28
2023-01-20T02:36:19.599Z,99011.53
2023-01-20T02:39:01.059Z,99006.56
2023-01-20T02:41:39.657Z,99011.22
2023-01-20T02:44:23.143Z,99010.31
2023-01-20T02:46:50.150Z,99015.44
2023-01-20T02:49:55.893Z,99018.13
2023-01-20T02:52:27.112Z,99017.03
2023-01-20T02:54:59.307Z,99023.72
2023-01-20T02:57:35.774Z,99025.50
2023-01-20T03:00:20.589Z,99023.41
2023-01-20T03:02:50.088Z,99026.72
2023-01-20T03:05:31.397Z,99027.47
2023-01-20T03:08:05.032Z,99025.66
2023-01-20T03:10:35.711Z,99018.28
2023-01-20T03:13:37.099Z,99015.44
2023-01-20T03:16:08.609Z,99016.94
2023-01-20T03:18:37.553Z,99013.75
2023-01-20T03:21:07.678Z,99023.44
2023-01-20T03:23:38.513Z,99016.81
2023-01-20T03:26:09.608Z,99021.03
2023-01-20T03:28:36.765Z,99018.00
2023-01-20T03:31:21.515Z,99010.94
2023-01-20T03:33:50.427Z,99013.06
2023-01-20T03:36:19.018Z,99008.09
2023-01-20T03:38:46.748Z,99010.19
2023-01-20T03:41:41.663Z,98999.47
2023-01-20T03:44:30.620Z,99002.66
2023-01-20T03:47:13.426Z,98997.06
2023-01-20T03:49:46.778Z,98994.34
2023-01-20T03:52:47.047Z,98998.44
2023-01-20T03:55:23.164Z,98995.41
2023-01-20T03:58:06.266Z,98996.31
2023-01-20T04:00:36.739Z,98999.94
2023-01-20T04:03:19.326Z,99001.16
2023-01-20T04:05:48.622Z,98995.44
2023-01-20T04:08:20.605Z,98995.13
2023-01-20T04:10:50.293Z,98990.72
2023-01-20T04:13:17.722Z,98997.69
2023-01-20T04:15:46.286Z,98994.22
2023-01-20T04:18:22.251Z,98987.44
2023-01-20T04:21:02.810Z,98990.59
2023-01-20T04:23:39.705Z,98999.34
2023-01-20T04:26:06.745Z,99006.09
2023-01-20T04:28:34.093Z,99009.44
2023-01-20T04:31:01.196Z,99014.13
2023-01-20T04:33:28.804Z,99023.00
2023-01-20T04:35:55.768Z,99032.81
2023-01-20T04:38:23.098Z,99046.38
2023-01-20T04:40:50.241Z,99055.09
2023-01-20T04:43:18.507Z,99062.31
2023-01-20T04:45:45.472Z,99056.41
2023-01-20T04:48:13.289Z,99059.59
2023-01-20T04:50:41.387Z,99051.91
2023-01-20T04:53:13.855Z,99063.38
2023-01-20T04:55:41.058Z,99068.34
2023-01-20T04:58:10.624Z,99077.66
2023-01-20T05:00:37.677Z,99090.31
2023-01-20T05:03:06.363Z,99096.97
2023-01-20T05:05:33.556Z,99105.97
2023-01-20T05:08:01.033Z,99109.59
2023-01-20T05:10:28.235Z,99112.75
2023-01-20T05:12:55.696Z,99115.00
2023-01-20T05:15:22.756Z,99116.97
2023-01-20T05:17:50.165Z,99126.16
2023-01-20T05:20:19.150Z,99133.53
2023-01-20T05:22:50.974Z,99133.69
2023-01-20T05:25:18.082Z,99133.69
2023-01-20T05:27:46.007Z,99123.28
2023-01-20T05:30:13.383Z,99129.78
2023-01-20T05:32:40.785Z,99130.50
2023-01-20T05:35:08.802Z,99128.56
2023-01-20T05:37:36.166Z,99125.09
2023-01-20T05:40:03.687Z,99130.50
2023-01-20T05:42:33.128Z,99127.50
2023-01-20T05:45:00.198Z,99131.28
2023-01-20T05:47:27.628Z,99131.28
2023-01-20T05:49:54.651Z,99134.63
2023-01-20T05:52:24.575Z,99139.59
2023-01-20T05:54:51.632Z,99133.25
2023-01-20T05:57:19.242Z,99142.75
2023-01-20T05:59:49.770Z,99142.94
2023-01-20T06:02:19.586Z,99142.47
2023-01-20T06:04:47.108Z,99138.25
2023-01-20T06:07:15.780Z,99143.06
2023-01-20T06:09:42.793Z,99141.56
2023-01-20T06:12:10.157Z,99140.50
2023-01-20T06:14:37.276Z,99138.22
2023-01-20T06:17:06.942Z,99144.09
2023-01-20T06:19:36.388Z,99140.94
2023-01-20T06:22:05.083Z,99131.47
2023-01-20T06:24:32.085Z,99129.97
2023-01-20T06:26:59.844Z,99128.31
2023-01-20T06:29:26.812Z,99119.28
2023-01-20T06:31:55.028Z,99116.44
2023-01-20T06:34:22.132Z,99125.03
2023-01-20T06:36:49.554Z,99115.84
2023-01-20T06:39:16.911Z,99126.41
2023-01-20T06:41:44.329Z,99134.41
2023-01-20T06:44:11.904Z,99130.31
2023-01-20T06:46:40.147Z,99138.63
2023-01-20T06:49:07.227Z,99134.72
2023-01-20T06:51:34.962Z,99131.72
2023-01-20T06:54:04.293Z,99135.31
2023-01-20T06:56:31.817Z,99151.63
2023-01-20T06:58:59.166Z,99145.28
2023-01-20T07:01:31.042Z,99144.97
2023-01-20T07:03:58.675Z,99141.06
2023-01-20T07:06:31.846Z,99135.34
2023-01-20T07:09:00.364Z,99144.38
2023-01-20T07:11:29.081Z,99137.31
2023-01-20T07:13:56.076Z,99140.44
2023-01-20T07:16:26.147Z,99139.41
2023-01-20T07:18:54.072Z,99147.41
2023-01-20T07:21:23.025Z,99145.09
2023-01-20T07:23:53.737Z,99149.97
2023-01-20T07:26:24.320Z,99152.78
2023-01-20T07:28:57.641Z,99156.72
2023-01-20T07:31:27.577Z,99155.34
2023-01-20T07:33:56.436Z,99156.41
2023-01-20T07:36:24.484Z,99157.44
2023-01-20T07:38:54.597Z,99168.13
2023-01-20T07:41:22.749Z,99161.78
2023-01-20T07:43:51.712Z,99162.69
2023-01-20T07:46:19.989Z,99165.84
2023-01-20T07:48:47.289Z,99175.34
2023-01-20T07:51:16.634Z,99180.75
2023-01-20T07:53:47.220Z,99186.47
2023-01-20T07:56:26.565Z,99193.41
2023-01-20T07:58:55.229Z,99194.25
2023-01-20T08:01:26.774Z,99196.38
2023-01-20T08:03:54.708Z,99186.53
2023-01-20T08:06:24.935Z,99189.25
2023-01-20T08:08:52.071Z,99194.03
2023-01-20T08:11:21.308Z,99190.25
2023-01-20T08:13:49.528Z,99192.97
2023-01-20T08:16:18.232Z,99205.69
2023-01-20T08:18:46.187Z,99209.44
2023-01-20T08:21:33.514Z,99212.78
2023-01-20T08:24:04.298Z,99221.38
2023-01-20T08:26:32.635Z,99219.59
2023-01-20T08:29:08.634Z,99226.06
2023-01-20T08:31:37.628Z,99234.06
2023-01-20T08:34:05.068Z,99236.16
2023-01-20T08:36:35.840Z,99243.69
2023-01-20T08:39:05.714Z,99235.22
2023-01-20T08:41:36.249Z,99240.78
2023-01-20T08:44:06.257Z,99240.66
2023-01-20T08:46:40.468Z,99249.44
2023-01-20T08:49:13.619Z,99252.75
2023-01-20T08:51:42.243Z,99253.59
2023-01-20T08:54:09.511Z,99250.31
2023-01-20T08:56:37.176Z,99245.44
2023-01-20T08:59:05.111Z,99261.22
2023-01-20T09:01:38.105Z,99259.69
2023-01-20T09:04:07.307Z,99265.72
2023-01-20T09:06:50.394Z,99271.31
2023-01-20T09:09:19.686Z,99275.69
2023-01-20T09:11:51.561Z,99287.63
2023-01-20T09:14:23.043Z,99268.41
2023-01-20T09:16:52.047Z,99264.72
2023-01-20T09:19:19.366Z,99271.94
2023-01-20T09:21:46.768Z,99282.81
2023-01-20T09:24:14.271Z,99285.47
2023-01-20T09:26:41.922Z,99276.31
2023-01-20T09:29:14.329Z,99278.03
2023-01-20T09:31:44.996Z,99287.34
2023-01-20T09:34:19.300Z,99284.50
2023-01-20T09:36:54.012Z,99283.09
2023-01-20T09:39:40.371Z,99272.50
2023-01-20T09:42:56.014Z,99273.06
2023-01-20T09:45:25.095Z,99288.50
2023-01-20T09:48:05.620Z,99282.47
2023-01-20T09:51:04.592Z,99285.47
2023-01-20T09:53:41.084Z,99294.31
2023-01-20T09:56:22.949Z,99293.66
2023-01-20T09:59:03.473Z,99295.81
2023-01-20T10:01:34.962Z,99286.97
2023-01-20T10:04:33.240Z,99298.19
2023-01-20T10:07:11.852Z,99284.00
2023-01-20T10:10:00.503Z,99285.47
2023-01-20T10:12:29.873Z,99281.25
2023-01-20T10:15:18.855Z,99289.53
2023-01-20T10:17:58.886Z,99270.72
2023-01-20T10:20:32.361Z,99279.34
2023-01-20T10:23:17.070Z,99279.38
2023-01-20T10:25:51.587Z,99278.78
2023-01-20T10:28:41.004Z,99276.66
2023-01-20T10:31:09.932Z,99275.06
2023-01-20T10:33:44.164Z,99274.19
2023-01-20T10:36:31.999Z,99275.31
2023-01-20T10:39:04.787Z,99274.94
2023-01-20T10:41:44.107Z,99270.34
2023-01-20T10:44:15.823Z,99279.88
2023-01-20T10:47:13.485Z,99280.13
2023-01-20T10:50:16.133Z,99269.78
2023-01-20T10:53:13.319Z,99265.72
2023-01-20T10:56:02.496Z,99272.69
2023-01-20T10:58:38.090Z,99261.72
2023-01-20T11:01:09.441Z,99255.47
2023-01-20T11:03:41.154Z,99242.91
2023-01-20T11:06:18.378Z,99238.13
2023-01-20T11:08:46.248Z,99239.28
2023-01-20T11:11:17.721Z,99238.91
2023-01-20T11:13:45.570Z,99241.84
2023-01-20T11:16:23.201Z,99249.63
2023-01-20T11:19:02.309Z,99231.66
2023-01-20T11:21:33.527Z,99228.53
2023-01-20T11:24:41.952Z,99224.63
2023-01-20T11:27:19.350Z,99219.38
2023-01-20T11:30:09.371Z,99224.16
2023-01-20T11:32:40.126Z,99218.34
2023-01-20T11:35:25.844Z,99216.44
2023-01-20T11:37:53.333Z,99226.53
2023-01-20T11:40:29.814Z,99222.72
2023-01-20T11:42:59.424Z,99228.66
2023-01-20T11:45:39.009Z,99230.22
2023-01-20T11:48:16.846Z,99218.78
2023-01-20T11:50:47.787Z,99223.06
2023-01-20T11:53:17.952Z,99221.06
2023-01-20T11:55:57.583Z,99219.38
2023-01-20T11:58:32.318Z,99224.19
2023-01-20T12:01:06.227Z,99217.63
2023-01-20T12:04:04.592Z,99219.38
2023-01-20T12:06:46.053Z,99204.31
2023-01-20T12:09:20.011Z,99204.09
2023-01-20T12:12:15.316Z,99203.78
2023-01-20T12:14:45.895Z,99206.59
2023-01-20T12:17:46.643Z,99198.69
2023-01-20T12:20:24.685Z,99209.69
2023-01-20T12:23:21.556Z,99206.28
2023-01-20T12:25:53.763Z,99210.78
2023-01-20T12:28:27.702Z,99214.34
2023-01-20T12:31:24.321Z,99218.94
2023-01-20T12:33:55.013Z,99217.13
2023-01-20T12:36:59.971Z,99224.84
2023-01-20T12:39:27.401Z,99232.47
2023-01-20T12:42:10.009Z,99232.28
2023-01-20T12:44:46.702Z,99229.75
2023-01-20T12:47:51.336Z,99229.28
2023-01-20T12:50:49.868Z,99223.81
2023-01-20T12:53:43.843Z,99217.53
2023-01-20T12:56:45.139Z,99226.69
2023-01-20T12:59:32.062Z,99229.41
2023-01-20T13:02:08.326Z,99230.91
2023-01-20T13:05:03.619Z,99222.91
2023-01-20T13:07:44.137Z,99212.75
2023-01-20T13:10:29.634Z,99218.13
2023-01-20T13:13:14.009Z,99218.13
2023-01-20T13:15:46.228Z,99222.91
2023-01-20T13:18:19.744Z,99216.16
2023-01-20T13:20:47.036Z,99222.53
2023-01-20T13:23:24.429Z,99232.06
2023-01-20T13:25:52.569Z,99229.13
2023-01-20T13:28:23.811Z,99223.28
2023-01-20T13:30:54.419Z,99224.69
2023-01-20T13:33:28.611Z,99225.81
2023-01-20T13:35:56.350Z,99224.50
2023-01-20T13:38:28.005Z,99223.00
2023-01-20T13:41:03.568Z,99227.31
2023-01-20T13:43:30.995Z,99227.97
2023-01-20T13:46:04.610Z,99229.94
2023-01-20T13:48:36.461Z,99231.19
2023-01-20T13:51:29.824Z,99234.59
2023-01-20T13:54:25.682Z,99237.81
2023-01-20T13:56:52.910Z,99239.88
2023-01-20T13:59:21.063Z,99240.88
2023-01-20T14:01:48.382Z,99243.06
2023-01-20T14:04:19.025Z,99240.63
2023-01-20T14:06:48.075Z,99247.03
2023-01-20T14:09:24.000Z,99248.06
2023-01-20T14:11:57.053Z,99249.06
2023-01-20T14:14:26.483Z,99253.03
2023-01-20T14:16:55.807Z,99256.25
2023-01-20T14:19:36.342Z,99243.06
2023-01-20T14:22:27.940Z,99242.88
2023-01-20T14:25:00.276Z,99245.34
2023-01-20T14:27:32.435Z,99249.75
2023-01-20T14:30:19.266Z,99252.75
2023-01-20T14:32:47.332Z,99256.47
2023-01-20T14:35:34.122Z,99258.91
2023-01-20T14:38:01.260Z,99255.88
2023-01-20T14:40:32.059Z,99259.84
2023-01-20T14:43:01.371Z,99254.78
2023-01-20T14:45:34.712Z,99261.94
2023-01-20T14:48:02.993Z,99263.47
2023-01-20T14:50:30.603Z,99262.69
2023-01-20T14:53:02.574Z,99263.66
2023-01-20T14:55:35.657Z,99259.13
2023-01-20T14:58:30.684Z,99260.06
2023-01-20T15:01:04.263Z,99259.03
2023-01-20T15:03:31.911Z,99260.44
2023-01-20T15:06:09.198Z,99260.16
2023-01-20T15:08:37.375Z,99270.81
2023-01-20T15:11:12.899Z,99277.50
2023-01-20T15:13:41.633Z,99275.72
2023-01-20T15:16:27.670Z,99289.09
2023-01-20T15:19:13.491Z,99288.03
2023-01-20T15:21:45.855Z,99298.66
2023-01-20T15:24:30.937Z,99294.16
2023-01-20T15:27:00.782Z,99294.06
2023-01-20T15:29:30.423Z,99301.78
2023-01-20T15:32:02.194Z,99304.44
2023-01-20T15:34:29.811Z,99310.91
2023-01-20T15:37:00.028Z,99313.34
2023-01-20T15:39:31.421Z,99330.19
2023-01-20T15:41:58.848Z,99326.25
2023-01-20T15:44:26.545Z,99334.16
2023-01-20T15:46:57.392Z,99341.28
2023-01-20T15:49:25.758Z,99347.69
2023-01-20T15:51:53.412Z,99338.75
2023-01-20T15:54:23.069Z,99344.03
2023-01-20T15:56:50.484Z,99343.28
2023-01-20T15:59:22.489Z,99344.50
2023-01-20T16:01:50.748Z,99349.97
2023-01-20T16:04:21.372Z,99362.09
2023-01-20T16:06:50.660Z,99359.38
2023-01-20T16:09:25.814Z,99361.63
2023-01-20T16:11:53.688Z,99369.06
2023-01-20T16:14:21.545Z,99364.06
2023-01-20T16:16:51.117Z,99367.38
2023-01-20T16:19:18.922Z,99371.50
2023-01-20T16:21:46.333Z,99371.03
2023-01-20T16:24:16.617Z,99368.94
2023-01-20T16:26:46.323Z,99373.94
2023-01-20T16:29:16.000Z,99376.66
2023-01-20T16:31:43.177Z,99373.38
2023-01-20T16:34:10.578Z,99375.63
2023-01-20T16:36:37.596Z,99381.28
2023-01-20T16:39:06.117Z,99383.06
2023-01-20T16:41:36.367Z,99391.44
2023-01-20T16:44:04.498Z,99387.75
2023-01-20T16:46:35.554Z,99383.53
2023-01-20T16:49:03.619Z,99382.03
2023-01-20T16:51:31.949Z,99379.31
2023-01-20T16:54:00.234Z,99389.56
2023-01-20T16:56:29.626Z,99382.59
2023-01-20T16:58:58.695Z,99381.09
2023-01-20T17:01:26.441Z,99371.84
2023-01-20T17:03:57.264Z,99379.69
2023-01-20T17:06:27.386Z,99380.91
2023-01-20T17:08:57.911Z,99381.69
2023-01-20T17:11:37.330Z,99379.97
2023-01-20T17:14:07.319Z,99382.41
2023-01-20T17:16:34.991Z,99373.75
2023-01-20T17:19:03.152Z,99380.28
2023-01-20T17:21:33.065Z,99373.56
2023-01-20T17:24:05.165Z,99388.75
2023-01-20T17:26:33.057Z,99390.91
2023-01-20T17:29:03.588Z,99393.16
2023-01-20T17:31:34.469Z,99395.69
2023-01-20T17:34:04.307Z,99392.78
2023-01-20T17:36:34.697Z,99400.22
2023-01-20T17:39:04.066Z,99405.97
2023-01-20T17:41:32.762Z,99402.22
2023-01-20T17:44:00.586Z,99422.34
2023-01-20T17:46:30.035Z,99409.16
2023-01-20T17:48:59.056Z,99418.59
2023-01-20T17:51:29.426Z,99408.41
2023-01-20T17:54:03.656Z,99404.75
2023-01-20T17:56:35.716Z,99400.22
2023-01-20T17:59:03.367Z,99397.50
2023-01-20T18:01:35.243Z,99402.94
2023-01-20T18:04:09.666Z,99393.56
2023-01-20T18:06:40.076Z,99404.47
2023-01-20T18:09:10.606Z,99399.78
2023-01-20T18:11:38.079Z,99394.50
2023-01-20T18:14:07.271Z,99403.72
2023-01-20T18:16:38.007Z,99406.16
2023-01-20T18:19:05.945Z,99401.44
2023-01-20T18:21:35.899Z,99402.94
2023-01-20T18:24:07.512Z,99404.47
2023-01-20T18:26:37.236Z,99400.97
2023-01-20T18:29:12.951Z,99402.22
2023-01-20T18:31:47.176Z,99401.63
2023-01-20T18:34:16.144Z,99403.88
2023-01-20T18:36:50.237Z,99417.53
2023-01-20T18:39:26.532Z,99416.81
2023-01-20T18:41:55.458Z,99411.53
2023-01-20T18:44:23.919Z,99409.53
2023-01-20T18:46:52.076Z,99414.69
2023-01-20T18:49:20.181Z,99402.75
2023-01-20T18:51:47.826Z,99408.97
2023-01-20T18:54:19.279Z,99394.09
2023-01-20T18:56:48.441Z,99394.56
2023-01-20T18:59:16.780Z,99410.66
2023-01-20T19:01:45.284Z,99401.41
2023-01-20T19:04:14.163Z,99404.44
2023-01-20T19:06:44.609Z,99411.59
2023-01-20T19:09:14.008Z,99405.38
2023-01-20T19:11:42.975Z,99406.31
2023-01-20T19:14:14.085Z,99397.81
2023-01-20T19:16:50.245Z,99405.84
2023-01-20T19:19:19.951Z,99398.13
2023-01-20T19:21:53.536Z,99400.56
2023-01-20T19:24:22.417Z,99404.22
2023-01-20T19:26:52.644Z,99401.50
2023-01-20T19:29:24.267Z,99398.19
2023-01-20T19:31:55.013Z,99401.03
2023-01-20T19:34:24.216Z,99402.53
2023-01-20T19:36:51.667Z,99400.16
2023-01-20T19:39:24.221Z,99401.19
2023-01-20T19:41:53.351Z,99403.16
2023-01-20T19:44:24.019Z,99398.66
2023-01-20T19:46:52.140Z,99398.34
2023-01-20T19:49:23.730Z,99399.13
2023-01-20T19:51:52.242Z,99398.34
2023-01-20T19:54:26.256Z,99399.59
2023-01-20T19:56:55.868Z,99408.13
2023-01-20T19:59:24.459Z,99401.72
2023-01-20T20:01:54.017Z,99412.63
2023-01-20T20:04:25.257Z,99405.66
2023-01-20T20:06:53.562Z,99413.22
2023-01-20T20:09:26.718Z,99414.91
2023-01-20T20:11:58.390Z,99414.13
2023-01-20T20:14:31.711Z,99412.16
2023-01-20T20:17:02.627Z,99418.84
2023-01-20T20:19:32.264Z,99415.38
2023-01-20T20:22:00.148Z,99419.03
2023-01-20T20:24:29.847Z,99424.56
2023-01-20T20:26:59.727Z,99423.84
2023-01-20T20:29:31.096Z,99423.38
2023-01-20T20:32:00.517Z,99423.84
2023-01-20T20:34:29.361Z,99429.59
2023-01-20T20:36:58.494Z,99432.03
2023-01-20T20:39:27.546Z,99435.97
2023-01-20T20:41:57.011Z,99437.47
2023-01-20T20:44:25.799Z,99434.28
2023-01-20T20:46:53.347Z,99437.78
2023-01-20T20:49:22.433Z,99432.31
2023-01-20T20:51:52.740Z,99448.22
2023-01-20T20:54:25.157Z,99436.84
2023-01-20T20:56:55.235Z,99442.75
2023-01-20T20:59:25.269Z,99453.69
2023-01-20T21:01:53.571Z,99454.41
2023-01-20T21:04:23.245Z,99448.41
2023-01-20T21:06:56.623Z,99451.41
2023-01-20T21:09:26.419Z,99451.59
2023-01-20T21:11:57.876Z,99462.03
2023-01-20T21:14:26.341Z,99459.78
2023-01-20T21:16:53.807Z,99468.88
2023-01-20T21:19:24.421Z,99468.13
2023-01-20T21:21:52.123Z,99480.53
2023-01-20T21:24:20.337Z,99476.00
2023-01-20T21:26:47.618Z,99479.03
2023-01-20T21:29:15.795Z,99479.78
2023-01-20T21:31:43.566Z,99481.47
2023-01-20T21:34:15.615Z,99484.06
2023-01-20T21:36:43.481Z,99483.78
2023-01-20T21:39:13.459Z,99479.25
2023-01-20T21:41:41.372Z,99476.97
2023-01-20T21:44:29.615Z,99475.16
2023-01-20T21:47:13.296Z,99469.78
2023-01-20T21:49:59.477Z,99462.66
2023-01-20T21:52:42.060Z,99471.94
2023-01-20T21:55:24.228Z,99471.97
2023-01-20T21:57:51.906Z,99479.44
2023-01-20T22:00:20.196Z,99484.56
2023-01-20T22:02:47.900Z,99477.19
2023-01-20T22:05:15.457Z,99480.81
2023-01-20T22:07:42.614Z,99479.47
2023-01-20T22:10:10.973Z,99482.50
2023-01-20T22:12:38.176Z,99486.00
2023-01-20T22:15:06.093Z,99489.66
2023-01-20T22:17:33.423Z,99491.16
2023-01-20T22:20:01.027Z,99482.69
2023-01-20T22:22:28.134Z,99491.16
2023-01-20T22:24:55.611Z,99485.59
2023-01-20T22:27:22.766Z,99481.34
2023-01-20T22:29:50.422Z,99478.91
2023-01-20T22:32:17.411Z,99483.31
2023-01-20T22:34:44.773Z,99476.81
2023-01-20T22:37:11.959Z,99481.22
2023-01-20T22:39:39.301Z,99468.78
2023-01-20T22:42:06.751Z,99469.69
2023-01-20T22:44:34.142Z,99465.31
2023-01-20T22:47:01.677Z,99461.22
2023-01-20T22:49:29.956Z,99463.66
2023-01-20T22:51:57.016Z,99452.91
2023-01-20T22:54:24.368Z,99452.91
2023-01-20T22:56:51.425Z,99450.19
2023-01-20T22:59:18.737Z,99447.47
2023-01-20T23:01:45.869Z,99443.25
2023-01-20T23:04:13.480Z,99447.47
2023-01-20T23:06:40.626Z,99432.94
2023-01-20T23:09:11.099Z,99440.06
2023-01-20T23:11:41.815Z,99438.13
2023-01-20T23:14:13.494Z,99442.78
2023-01-20T23:16:42.111Z,99444.44
2023-01-20T23:19:10.636Z,99443.09
2023-01-20T23:21:37.673Z,99444.28
2023-01-20T23:24:05.556Z,99434.16
2023-01-20T23:26:34.367Z,99441.28
2023-01-20T23:29:01.666Z,99438.56
2023-01-20T23:31:33.253Z,99441.28
2023-01-20T23:34:00.730Z,99441.88
2023-01-20T23:36:27.730Z,99451.72
2023-01-20T23:38:56.363Z,99441.41
2023-01-20T23:41:23.640Z,99441.56
2023-01-20T23:43:51.410Z,99446.13
2023-01-20T23:46:20.646Z,99435.38
2023-01-20T23:48:48.134Z,99441.13
2023-01-20T23:51:18.284Z,99435.50
2023-01-20T23:53:45.737Z,99434.16
2023-01-20T23:56:17.990Z,99434.47
2023-01-20T23:58:46.183Z,99439.47
